createdAt,value
2018-04-17T00:01:33.319Z,18.80
2018-04-17T00:04:00.863Z,19.20
2018-04-17T00:06:28.418Z,18.97
2018-04-17T00:08:56.137Z,19.23
2018-04-17T00:11:23.664Z,20.00
2018-04-17T00:13:51.199Z,21.50
2018-04-17T00:16:19.010Z,15.87
2018-04-17T00:18:46.561Z,20.27
2018-04-17T00:21:14.111Z,18.00
2018-04-17T00:23:41.691Z,17.90
2018-04-17T00:26:09.239Z,19.90
2018-04-17T00:28:36.794Z,23.80
2018-04-17T00:31:04.376Z,22.87
2018-04-17T00:33:31.944Z,25.47
2018-04-17T00:35:59.491Z,18.00
2018-04-17T00:38:27.105Z,18.47
2018-04-17T00:40:54.666Z,18.07
2018-04-17T00:43:22.211Z,16.33
2018-04-17T00:45:50.024Z,20.37
2018-04-17T00:48:17.566Z,21.73
2018-04-17T00:50:45.123Z,15.53
2018-04-17T00:53:24.667Z,18.40
2018-04-17T00:55:52.218Z,13.60
2018-04-17T00:58:19.768Z,18.20
2018-04-17T01:00:47.368Z,17.37
2018-04-17T01:03:14.910Z,18.43
2018-04-17T01:05:42.447Z,15.73
2018-04-17T01:08:10.160Z,20.70
2018-04-17T01:10:37.701Z,12.73
2018-04-17T01:13:05.253Z,14.50
2018-04-17T01:15:32.843Z,12.50
2018-04-17T01:18:00.388Z,16.07
2018-04-17T01:20:27.918Z,13.93
2018-04-17T01:22:55.632Z,16.40
2018-04-17T01:25:23.181Z,15.27
2018-04-17T01:27:50.732Z,16.57
2018-04-17T01:30:18.295Z,19.30
2018-04-17T01:32:45.844Z,19.23
2018-04-17T01:35:14.065Z,19.93
2018-04-17T01:37:41.668Z,22.77
2018-04-17T01:40:09.215Z,19.10
2018-04-17T01:42:36.776Z,23.00
2018-04-17T01:45:04.482Z,30.77
2018-04-17T01:47:32.032Z,27.53
2018-04-17T01:49:59.594Z,21.53
2018-04-17T01:52:27.157Z,20.97
2018-04-17T01:54:54.711Z,24.77
2018-04-17T01:57:22.258Z,23.17
2018-04-17T01:59:49.857Z,18.20
2018-04-17T02:02:17.407Z,18.63
2018-04-17T02:04:44.959Z,24.87
2018-04-17T02:07:12.674Z,27.07
2018-04-17T02:09:40.222Z,22.80
2018-04-17T02:12:07.763Z,20.47
2018-04-17T02:14:35.359Z,22.73
2018-04-17T02:17:02.913Z,20.87
2018-04-17T02:19:30.460Z,21.23
2018-04-17T02:21:58.059Z,22.80
2018-04-17T02:24:25.600Z,22.67
2018-04-17T02:26:53.149Z,22.83
2018-04-17T02:29:20.713Z,20.00
2018-04-17T02:31:48.263Z,17.83
2018-04-17T02:34:15.867Z,23.93
2018-04-17T02:36:43.419Z,19.00
2018-04-17T02:39:10.963Z,20.43
2018-04-17T02:41:38.556Z,21.57
2018-04-17T02:44:06.119Z,22.50
2018-04-17T02:46:33.667Z,20.73
2018-04-17T02:49:01.539Z,13.83
2018-04-17T02:51:29.091Z,16.10
2018-04-17T02:53:56.636Z,19.03
2018-04-17T02:56:24.325Z,20.13
2018-04-17T02:58:51.872Z,18.60
2018-04-17T03:01:19.416Z,26.53
2018-04-17T03:03:46.991Z,18.67
2018-04-17T03:06:14.548Z,17.83
2018-04-17T03:08:42.107Z,16.87
2018-04-17T03:11:09.676Z,12.90
2018-04-17T03:13:37.223Z,12.00
2018-04-17T03:16:04.768Z,11.90
2018-04-17T03:18:32.342Z,7.70
2018-04-17T03:20:59.892Z,19.10
2018-04-17T03:23:27.437Z,22.40
2018-04-17T03:25:55.197Z,22.80
2018-04-17T03:28:22.776Z,14.77
2018-04-17T03:30:50.317Z,21.83
2018-04-17T03:33:17.893Z,17.73
2018-04-17T03:35:45.448Z,21.93
2018-04-17T03:38:12.992Z,25.90
2018-04-17T03:40:40.769Z,19.63
2018-04-17T03:43:08.312Z,17.37
2018-04-17T03:45:35.869Z,19.30
2018-04-17T03:48:03.447Z,19.47
2018-04-17T03:50:30.988Z,27.50
2018-04-17T03:52:58.541Z,23.07
2018-04-17T03:55:26.267Z,65.00
2018-04-17T03:57:53.838Z,24.93
2018-04-17T04:00:21.417Z,24.93
2018-04-17T04:02:49.007Z,48.43
2018-04-17T04:05:16.568Z,25.67
2018-04-17T04:07:44.125Z,57.10
2018-04-17T04:10:11.845Z,36.80
2018-04-17T04:12:39.392Z,23.23
2018-04-17T04:15:06.965Z,29.07
2018-04-17T04:17:46.540Z,24.13
2018-04-17T04:20:27.136Z,23.93
2018-04-17T04:23:06.341Z,26.03
2018-04-17T04:28:45.413Z,28.57
2018-04-17T04:31:12.961Z,30.90
2018-04-17T04:33:40.524Z,26.17
2018-04-17T04:36:08.079Z,31.13
2018-04-17T04:38:35.636Z,31.90
2018-04-17T04:41:03.221Z,41.23
2018-04-17T04:43:30.771Z,47.37
2018-04-17T04:45:58.364Z,36.50
2018-04-17T04:48:26.087Z,39.30
2018-04-17T04:50:53.673Z,37.97
2018-04-17T04:53:21.215Z,37.17
2018-04-17T04:55:48.994Z,42.37
2018-04-17T04:58:16.534Z,47.77
2018-04-17T05:00:44.092Z,39.00
2018-04-17T05:03:11.824Z,34.93
2018-04-17T05:05:39.381Z,32.37
2018-04-17T05:08:06.931Z,32.63
2018-04-17T05:10:34.808Z,33.60
2018-04-17T05:13:02.362Z,38.60
2018-04-17T05:15:29.912Z,35.90
2018-04-17T05:17:57.515Z,36.83
2018-04-17T05:20:25.080Z,37.90
2018-04-17T05:22:52.633Z,31.13
2018-04-17T05:25:20.372Z,35.60
2018-04-17T05:27:47.933Z,37.93
2018-04-17T05:30:15.503Z,32.67
2018-04-17T05:32:43.183Z,34.00
2018-04-17T05:35:10.737Z,30.97
2018-04-17T05:37:38.282Z,31.67
2018-04-17T05:40:07.114Z,32.80
2018-04-17T05:42:34.692Z,33.07
2018-04-17T05:45:02.236Z,33.70
2018-04-17T05:47:29.837Z,26.50
2018-04-17T05:49:57.391Z,32.17
2018-04-17T05:52:24.944Z,28.97
2018-04-17T05:54:52.643Z,35.27
2018-04-17T05:57:20.195Z,26.03
2018-04-17T05:59:47.740Z,37.10
2018-04-17T06:02:15.324Z,50.87
2018-04-17T06:04:42.873Z,36.13
2018-04-17T06:07:10.438Z,37.33
2018-04-17T06:09:38.038Z,35.47
2018-04-17T06:12:05.584Z,28.87
2018-04-17T06:14:33.148Z,36.83
2018-04-17T06:17:00.738Z,36.17
2018-04-17T06:19:28.294Z,38.60
2018-04-17T06:21:55.840Z,31.00
2018-04-17T06:24:23.440Z,36.27
2018-04-17T06:26:50.999Z,33.73
2018-04-17T06:29:18.545Z,39.27
2018-04-17T06:31:46.194Z,31.23
2018-04-17T06:34:13.745Z,37.07
2018-04-17T06:36:41.299Z,44.53
2018-04-17T06:39:08.864Z,38.47
2018-04-17T06:41:36.415Z,30.97
2018-04-17T06:44:03.995Z,30.13
2018-04-17T06:46:31.678Z,30.83
2018-04-17T06:48:59.245Z,35.97
2018-04-17T06:51:26.849Z,41.13
2018-04-17T06:53:54.513Z,41.93
2018-04-17T06:56:22.059Z,26.80
2018-04-17T06:58:49.637Z,34.30
2018-04-17T07:01:17.375Z,34.17
2018-04-17T07:03:44.929Z,33.00
2018-04-17T07:06:12.496Z,32.00
2018-04-17T07:08:40.096Z,27.13
2018-04-17T07:11:07.645Z,29.67
2018-04-17T07:13:35.213Z,27.77
2018-04-17T07:16:02.829Z,34.83
2018-04-17T07:18:30.372Z,31.37
2018-04-17T07:20:57.915Z,28.03
2018-04-17T07:23:25.480Z,27.90
2018-04-17T07:25:53.027Z,30.77
2018-04-17T07:28:20.582Z,32.13
2018-04-17T07:30:48.128Z,26.23
2018-04-17T07:34:55.737Z,28.27
2018-04-17T07:37:23.293Z,24.33
2018-04-17T07:42:43.942Z,21.93
2018-04-17T07:45:11.537Z,32.70
2018-04-17T07:47:39.123Z,27.83
2018-04-17T07:50:07.003Z,25.70
2018-04-17T07:52:34.561Z,20.20
2018-04-17T07:55:02.134Z,26.50
2018-04-17T07:57:29.873Z,26.20
2018-04-17T07:59:57.426Z,23.67
2018-04-17T08:02:24.975Z,40.10
2018-04-17T08:04:52.567Z,26.40
2018-04-17T08:07:20.111Z,27.50
2018-04-17T08:09:47.682Z,28.93
2018-04-17T08:12:15.272Z,33.57
2018-04-17T08:14:42.826Z,26.33
2018-04-17T08:17:10.392Z,24.50
2018-04-17T08:19:37.964Z,30.47
2018-04-17T08:22:05.517Z,23.10
2018-04-17T08:24:33.080Z,23.47
2018-04-17T08:27:00.941Z,26.13
2018-04-17T08:29:28.493Z,30.13
2018-04-17T08:31:56.039Z,28.40
2018-04-17T08:34:23.731Z,61.63
2018-04-17T08:36:51.289Z,63.90
2018-04-17T08:39:18.879Z,28.60
2018-04-17T08:41:46.601Z,32.47
2018-04-17T08:44:14.173Z,27.50
2018-04-17T08:46:41.725Z,28.10
2018-04-17T08:49:09.314Z,29.87
2018-04-17T08:51:37.798Z,29.43
2018-04-17T08:54:05.353Z,27.57
2018-04-17T08:56:33.199Z,28.03
2018-04-17T08:59:00.749Z,25.77
2018-04-17T09:01:28.299Z,33.10
2018-04-17T09:03:56.030Z,33.47
2018-04-17T09:06:23.579Z,28.77
2018-04-17T09:08:51.138Z,32.80
2018-04-17T09:11:18.789Z,23.43
2018-04-17T09:13:46.366Z,31.43
2018-04-17T09:16:13.927Z,31.60
2018-04-17T09:18:41.508Z,25.10
2018-04-17T09:21:09.060Z,32.10
2018-04-17T09:23:36.631Z,25.53
2018-04-17T09:26:04.549Z,27.63
2018-04-17T09:28:32.109Z,33.90
2018-04-17T09:30:59.673Z,53.33
2018-04-17T09:33:27.483Z,20.87
2018-04-17T09:35:55.047Z,15.97
2018-04-17T09:38:22.596Z,20.87
2018-04-17T09:40:50.218Z,25.00
2018-04-17T09:43:17.788Z,31.73
2018-04-17T09:45:45.346Z,22.00
2018-04-17T09:48:13.887Z,26.33
2018-04-17T09:50:41.445Z,20.87
2018-04-17T09:53:08.998Z,22.03
2018-04-17T09:55:36.608Z,21.80
2018-04-17T09:58:04.156Z,24.63
2018-04-17T10:00:37.472Z,15.73
2018-04-17T10:03:05.017Z,23.17
2018-04-17T10:05:32.570Z,16.80
2018-04-17T10:08:00.239Z,22.33
2018-04-17T10:10:27.771Z,19.47
2018-04-17T10:12:55.319Z,17.03
2018-04-17T10:15:22.900Z,19.33
2018-04-17T10:17:50.460Z,15.93
2018-04-17T10:20:18.030Z,18.70
2018-04-17T10:22:45.601Z,15.63
2018-04-17T10:25:13.152Z,21.70
2018-04-17T10:27:40.696Z,25.20
2018-04-17T10:30:08.238Z,16.93
2018-04-17T10:32:35.789Z,16.93
2018-04-17T10:35:03.557Z,16.77
2018-04-17T10:37:31.100Z,16.67
2018-04-17T10:39:58.649Z,13.73
2018-04-17T10:42:26.340Z,17.17
2018-04-17T10:44:53.888Z,16.97
2018-04-17T10:47:21.449Z,19.50
2018-04-17T10:49:49.041Z,15.80
2018-04-17T10:52:16.599Z,14.33
2018-04-17T10:54:44.149Z,12.23
2018-04-17T10:57:11.722Z,18.00
2018-04-17T10:59:39.275Z,15.43
2018-04-17T11:02:06.865Z,13.73
2018-04-17T11:04:34.457Z,15.30
2018-04-17T11:07:02.006Z,22.23
2018-04-17T11:09:29.551Z,14.30
2018-04-17T11:11:57.145Z,17.03
2018-04-17T11:14:24.688Z,12.87
2018-04-17T11:16:52.235Z,17.37
2018-04-17T11:19:19.836Z,22.60
2018-04-17T11:21:47.392Z,17.30
2018-04-17T11:24:14.991Z,17.80
2018-04-17T11:26:42.715Z,9.63
2018-04-17T11:29:10.320Z,13.57
2018-04-17T11:31:37.841Z,14.93
2018-04-17T11:34:05.416Z,17.83
2018-04-17T11:36:32.964Z,17.00
2018-04-17T11:39:07.228Z,10.83
2018-04-17T11:41:34.768Z,20.53
2018-04-17T11:44:02.318Z,18.87
2018-04-17T11:46:30.051Z,15.60
2018-04-17T11:48:57.596Z,11.50
2018-04-17T11:51:25.153Z,19.60
2018-04-17T11:53:52.840Z,16.40
2018-04-17T11:56:20.389Z,20.20
2018-04-17T11:58:47.936Z,19.27
2018-04-17T12:01:15.794Z,16.33
2018-04-17T12:03:43.342Z,32.60
2018-04-17T12:06:10.912Z,16.67
2018-04-17T12:08:38.800Z,12.97
2018-04-17T12:11:06.374Z,18.63
2018-04-17T12:13:33.945Z,17.63
2018-04-17T12:16:01.726Z,20.03
2018-04-17T12:18:29.269Z,21.03
2018-04-17T12:20:56.817Z,17.93
2018-04-17T12:23:24.408Z,20.57
2018-04-17T12:25:52.022Z,17.43
2018-04-17T12:28:19.535Z,19.90
2018-04-17T12:30:47.131Z,13.90
2018-04-17T12:33:14.681Z,18.07
2018-04-17T12:35:42.558Z,17.50
2018-04-17T12:38:10.115Z,19.20
2018-04-17T12:40:37.667Z,12.73
2018-04-17T12:43:05.261Z,23.17
2018-04-17T12:45:32.839Z,16.57
2018-04-17T12:48:00.383Z,19.57
2018-04-17T12:50:28.120Z,11.97
2018-04-17T12:52:55.706Z,22.93
2018-04-17T12:55:23.270Z,26.23
2018-04-17T12:57:50.843Z,16.13
2018-04-17T13:00:18.389Z,18.70
2018-04-17T13:02:45.940Z,14.10
2018-04-17T13:05:13.676Z,19.23
2018-04-17T13:07:41.247Z,16.60
2018-04-17T13:10:08.853Z,16.60
2018-04-17T13:12:36.424Z,21.83
2018-04-17T13:15:03.982Z,26.60
2018-04-17T13:17:31.541Z,19.07
2018-04-17T13:19:59.189Z,17.83
2018-04-17T13:22:26.745Z,25.80
2018-04-17T13:24:54.324Z,26.03
2018-04-17T13:27:22.036Z,22.40
2018-04-17T13:29:49.592Z,20.17
2018-04-17T13:32:17.150Z,17.57
2018-04-17T13:34:44.732Z,14.90
2018-04-17T13:37:12.298Z,16.13
2018-04-17T13:39:39.845Z,24.67
2018-04-17T13:42:07.449Z,19.03
2018-04-17T13:44:34.987Z,19.23
2018-04-17T13:47:02.539Z,20.90
2018-04-17T13:49:30.113Z,22.63
2018-04-17T13:51:57.657Z,19.67
2018-04-17T13:54:25.196Z,22.33
2018-04-17T13:56:52.825Z,21.07
2018-04-17T13:59:20.376Z,24.43
2018-04-17T14:01:47.954Z,22.37
2018-04-17T14:04:15.546Z,17.53
2018-04-17T14:06:43.097Z,28.30
2018-04-17T14:09:10.667Z,14.57
2018-04-17T14:11:38.364Z,23.43
2018-04-17T14:14:05.898Z,20.17
2018-04-17T14:16:33.436Z,21.67
2018-04-17T14:19:01.019Z,12.73
2018-04-17T14:21:28.588Z,20.63
2018-04-17T14:23:56.142Z,23.77
2018-04-17T14:26:23.708Z,18.43
2018-04-17T14:28:51.249Z,16.60
2018-04-17T14:31:18.807Z,22.87
2018-04-17T14:33:46.372Z,16.17
2018-04-17T14:36:13.937Z,19.90
2018-04-17T14:38:41.515Z,20.40
2018-04-17T14:41:09.086Z,15.33
2018-04-17T14:43:36.779Z,21.47
2018-04-17T14:46:04.349Z,19.70
2018-04-17T14:48:31.969Z,23.13
2018-04-17T14:50:59.554Z,21.30
2018-04-17T14:53:27.101Z,18.30
2018-04-17T14:55:54.846Z,15.73
2018-04-17T14:58:22.389Z,22.77
2018-04-17T15:00:49.940Z,22.07
2018-04-17T15:03:17.526Z,23.33
2018-04-17T15:05:45.126Z,15.67
2018-04-17T15:08:13.420Z,22.03
2018-04-17T15:10:41.006Z,19.60
2018-04-17T15:13:08.562Z,18.30
2018-04-17T15:15:36.114Z,18.10
2018-04-17T15:18:03.677Z,22.83
2018-04-17T15:20:31.237Z,24.67
2018-04-17T15:22:58.788Z,15.23
2018-04-17T15:25:26.682Z,22.57
2018-04-17T15:27:54.248Z,20.53
2018-04-17T15:30:21.801Z,16.90
2018-04-17T15:32:49.523Z,24.13
2018-04-17T15:35:17.094Z,19.10
2018-04-17T15:37:44.683Z,13.70
2018-04-17T15:40:12.273Z,16.47
2018-04-17T15:42:39.826Z,12.87
2018-04-17T15:45:07.394Z,27.00
2018-04-17T15:47:35.262Z,22.73
2018-04-17T15:50:02.844Z,20.87
2018-04-17T15:52:30.388Z,13.00
2018-04-17T15:54:57.979Z,23.73
2018-04-17T15:57:25.533Z,26.93
2018-04-17T15:59:53.092Z,16.10
2018-04-17T16:02:20.833Z,17.97
2018-04-17T16:04:48.377Z,21.73
2018-04-17T16:07:15.945Z,32.83
2018-04-17T16:09:43.983Z,17.00
2018-04-17T16:12:11.535Z,24.37
2018-04-17T16:14:39.166Z,26.73
2018-04-17T16:17:06.809Z,24.03
2018-04-17T16:19:34.405Z,25.67
2018-04-17T16:22:01.958Z,22.80
2018-04-17T16:24:29.768Z,22.63
2018-04-17T16:26:57.324Z,24.80
2018-04-17T16:29:24.886Z,27.23
2018-04-17T16:31:52.502Z,24.50
2018-04-17T16:34:20.100Z,30.27
2018-04-17T16:36:47.653Z,27.03
2018-04-17T16:39:15.313Z,22.53
2018-04-17T16:41:42.905Z,30.73
2018-04-17T16:44:10.473Z,16.90
2018-04-17T16:46:38.371Z,20.07
2018-04-17T16:49:05.971Z,25.40
2018-04-17T16:51:33.565Z,22.33
2018-04-17T16:54:01.307Z,18.67
2018-04-17T16:56:28.871Z,20.83
2018-04-17T16:58:56.449Z,29.37
2018-04-17T17:01:24.217Z,23.03
2018-04-17T17:03:51.795Z,23.40
2018-04-17T17:06:19.346Z,34.80
2018-04-17T17:08:47.117Z,19.93
2018-04-17T17:11:14.698Z,25.53
2018-04-17T17:13:42.283Z,21.23
2018-04-17T17:16:10.172Z,19.37
2018-04-17T17:18:37.743Z,21.60
2018-04-17T17:21:05.315Z,21.03
2018-04-17T17:23:32.921Z,22.07
2018-04-17T17:26:00.522Z,20.70
2018-04-17T17:28:28.159Z,19.87
2018-04-17T17:30:55.775Z,19.43
2018-04-17T17:33:23.378Z,17.23
2018-04-17T17:35:50.997Z,20.47
2018-04-17T17:38:18.612Z,23.47
2018-04-17T17:40:46.184Z,21.73
2018-04-17T17:43:13.860Z,19.17
2018-04-17T17:45:41.461Z,23.57
2018-04-17T17:48:09.033Z,20.83
2018-04-17T17:50:36.856Z,18.93
2018-04-17T17:53:04.493Z,21.60
2018-04-17T17:55:32.229Z,24.90
2018-04-17T17:57:59.884Z,16.33
2018-04-17T18:00:27.555Z,29.67
2018-04-17T18:02:55.133Z,26.83
2018-04-17T18:05:22.796Z,19.73
2018-04-17T18:07:50.413Z,22.77
2018-04-17T18:10:17.969Z,26.63
2018-04-17T18:12:46.376Z,26.97
2018-04-17T18:15:13.985Z,29.27
2018-04-17T18:17:41.616Z,59.23
2018-04-17T18:20:09.371Z,51.37
2018-04-17T18:22:36.987Z,39.47
2018-04-17T18:25:04.602Z,31.83
2018-04-17T18:27:32.560Z,25.10
2018-04-17T18:30:00.268Z,27.97
2018-04-17T18:32:27.892Z,26.47
2018-04-17T18:34:55.828Z,42.97
2018-04-17T18:37:23.446Z,50.53
2018-04-17T18:39:51.049Z,32.40
2018-04-17T18:42:19.040Z,30.63
2018-04-17T18:44:46.632Z,58.27
2018-04-17T18:47:14.234Z,23.63
2018-04-17T18:49:42.127Z,22.80
2018-04-17T18:52:09.747Z,18.97
2018-04-17T18:54:37.330Z,25.37
2018-04-17T18:57:04.999Z,21.97
2018-04-17T18:59:32.614Z,22.57
2018-04-17T19:02:00.195Z,38.80
2018-04-17T19:04:27.831Z,29.37
2018-04-17T19:06:55.432Z,29.27
2018-04-17T19:09:22.989Z,19.73
2018-04-17T19:11:50.602Z,21.20
2018-04-17T19:14:18.253Z,19.50
2018-04-17T19:16:45.839Z,24.37
2018-04-17T19:19:13.512Z,21.93
2018-04-17T19:21:41.133Z,20.20
2018-04-17T19:24:08.716Z,29.03
2018-04-17T19:26:36.453Z,18.90
2018-04-17T19:29:04.111Z,17.40
2018-04-17T19:31:31.724Z,21.70
2018-04-17T19:33:59.790Z,27.40
2018-04-17T19:36:27.412Z,22.23
2018-04-17T19:38:55.001Z,18.67
2018-04-17T19:41:22.645Z,19.27
2018-04-17T19:43:50.227Z,17.93
2018-04-17T19:46:17.795Z,19.97
2018-04-17T19:48:45.406Z,20.80
2018-04-17T19:51:12.982Z,26.13
2018-04-17T19:53:40.623Z,23.57
2018-04-17T19:56:08.539Z,20.73
2018-04-17T19:58:36.126Z,31.57
2018-04-17T20:01:03.713Z,60.40
2018-04-17T20:03:31.316Z,49.73
2018-04-17T20:05:58.905Z,24.67
2018-04-17T20:08:26.489Z,26.13
2018-04-17T20:10:54.106Z,18.13
2018-04-17T20:13:21.690Z,20.80
2018-04-17T20:15:49.267Z,20.10
2018-04-17T20:18:17.148Z,18.50
2018-04-17T20:20:44.759Z,18.33
2018-04-17T20:23:12.344Z,21.00
2018-04-17T20:25:39.955Z,19.43
2018-04-17T20:28:07.525Z,19.57
2018-04-17T20:30:35.078Z,17.20
2018-04-17T20:33:02.689Z,23.57
2018-04-17T20:35:30.263Z,20.43
2018-04-17T20:37:57.846Z,17.67
2018-04-17T20:40:25.441Z,21.73
2018-04-17T20:42:53.007Z,28.13
2018-04-17T20:45:20.591Z,25.13
2018-04-17T20:47:48.269Z,24.13
2018-04-17T20:50:15.851Z,19.00
2018-04-17T20:52:43.428Z,23.80
2018-04-17T20:55:11.357Z,24.40
2018-04-17T20:57:38.925Z,32.23
2018-04-17T21:00:06.520Z,22.47
2018-04-17T21:02:34.112Z,26.80
2018-04-17T21:05:01.676Z,30.47
2018-04-17T21:07:29.234Z,23.07
2018-04-17T21:09:57.124Z,29.03
2018-04-17T21:12:24.713Z,19.73
2018-04-17T21:14:52.315Z,24.67
2018-04-17T21:17:20.024Z,24.77
2018-04-17T21:19:47.578Z,27.17
2018-04-17T21:22:15.150Z,21.93
2018-04-17T21:24:42.801Z,20.80
2018-04-17T21:27:10.778Z,23.47
2018-04-17T21:29:38.329Z,22.27
2018-04-17T21:32:05.924Z,32.97
2018-04-17T21:34:33.480Z,27.80
2018-04-17T21:37:01.095Z,25.63
2018-04-17T21:39:28.702Z,24.57
2018-04-17T21:41:56.261Z,29.53
2018-04-17T21:44:23.836Z,29.63
2018-04-17T21:46:51.391Z,32.40
2018-04-17T21:49:18.950Z,33.67
2018-04-17T21:51:46.527Z,25.50
2018-04-17T21:54:14.073Z,35.90
2018-04-17T21:56:41.943Z,29.80
2018-04-17T21:59:09.618Z,29.13
2018-04-17T22:01:37.173Z,33.73
2018-04-17T22:04:04.721Z,34.83
2018-04-17T22:06:32.332Z,36.57
2018-04-17T22:08:59.881Z,27.33
2018-04-17T22:11:27.451Z,28.90
2018-04-17T22:13:55.032Z,29.77
2018-04-17T22:16:22.607Z,24.87
2018-04-17T22:18:50.147Z,22.83
2018-04-17T22:21:17.769Z,24.67
2018-04-17T22:23:45.347Z,29.37
2018-04-17T22:26:12.918Z,23.30
2018-04-17T22:28:40.535Z,22.87
2018-04-17T22:31:08.126Z,19.33
2018-04-17T22:33:35.710Z,24.17
2018-04-17T22:36:03.338Z,23.60
2018-04-17T22:38:30.968Z,27.73
2018-04-17T22:40:58.564Z,23.83
2018-04-17T22:43:26.280Z,24.83
2018-04-17T22:45:53.890Z,25.33
2018-04-17T22:48:21.924Z,24.73
2018-04-17T22:50:49.528Z,23.43
2018-04-17T22:53:17.112Z,23.93
2018-04-17T22:55:44.703Z,20.33
2018-04-17T22:58:12.835Z,23.00
2018-04-17T23:00:40.389Z,22.43
2018-04-17T23:03:07.960Z,20.37
2018-04-17T23:05:35.558Z,26.03
2018-04-17T23:08:03.110Z,18.67
2018-04-17T23:10:30.656Z,19.83
2018-04-17T23:12:58.417Z,21.63
2018-04-17T23:15:25.979Z,21.13
2018-04-17T23:17:53.539Z,15.70
2018-04-17T23:20:21.268Z,25.03
2018-04-17T23:22:48.819Z,21.57
2018-04-17T23:25:16.375Z,18.67
2018-04-17T23:27:43.951Z,22.30
2018-04-17T23:30:11.519Z,18.37
2018-04-17T23:32:39.063Z,15.67
2018-04-17T23:35:06.638Z,18.37
2018-04-17T23:37:34.185Z,17.90
2018-04-17T23:40:01.738Z,19.23
2018-04-17T23:42:29.388Z,19.83
2018-04-17T23:44:56.966Z,18.00
2018-04-17T23:47:24.517Z,21.70
2018-04-17T23:49:52.198Z,17.83
2018-04-17T23:52:19.769Z,18.43
2018-04-17T23:54:47.320Z,17.83
2018-04-17T23:57:14.890Z,21.90
2018-04-17T23:59:42.477Z,13.53
